createdAt,value
2023-03-08T00:04:04.441Z,4.60
2023-03-08T00:09:07.136Z,6.73
2023-03-08T00:14:09.816Z,8.73
2023-03-08T00:19:12.299Z,8.97
2023-03-08T00:24:17.758Z,5.40
2023-03-08T00:29:20.170Z,4.73
2023-03-08T00:34:22.757Z,7.53
2023-03-08T00:39:25.254Z,5.50
2023-03-08T00:44:27.842Z,5.47
2023-03-08T00:49:30.249Z,5.30
2023-03-08T00:54:33.978Z,5.60
2023-03-08T00:59:36.673Z,4.93
2023-03-08T01:04:40.421Z,4.57
2023-03-08T01:09:42.860Z,6.73
2023-03-08T01:14:45.220Z,6.17
2023-03-08T01:19:49.374Z,7.80
2023-03-08T01:24:53.491Z,6.30
2023-03-08T01:29:55.922Z,7.00
2023-03-08T01:35:04.572Z,5.90
2023-03-08T01:40:08.272Z,5.10
2023-03-08T01:45:48.348Z,4.83
2023-03-08T01:50:51.246Z,6.70
2023-03-08T01:55:54.491Z,6.23
2023-03-08T02:05:59.612Z,5.57
2023-03-08T02:11:02.960Z,6.43
2023-03-08T02:16:09.817Z,7.50
2023-03-08T02:21:13.128Z,6.20
2023-03-08T02:26:16.300Z,8.00
2023-03-08T02:31:18.705Z,6.20
2023-03-08T02:36:21.088Z,6.77
2023-03-08T02:41:25.678Z,5.93
2023-03-08T02:46:28.700Z,6.37
2023-03-08T02:51:33.134Z,7.47
2023-03-08T02:56:37.588Z,7.23
2023-03-08T03:01:40.428Z,7.60
2023-03-08T03:06:43.030Z,6.57
2023-03-08T03:11:47.598Z,6.47
2023-03-08T03:16:50.325Z,5.80
2023-03-08T03:21:53.145Z,8.17
2023-03-08T03:26:55.683Z,7.00
2023-03-08T03:32:00.708Z,7.57
2023-03-08T03:37:03.966Z,5.43
2023-03-08T03:42:10.286Z,6.43
2023-03-08T03:47:18.077Z,6.30
2023-03-08T03:52:22.103Z,6.63
2023-03-08T03:57:32.337Z,8.33
2023-03-08T04:02:35.583Z,4.40
2023-03-08T04:07:38.429Z,6.97
2023-03-08T04:12:42.517Z,6.67
2023-03-08T04:17:45.566Z,7.47
2023-03-08T04:22:49.287Z,8.50
2023-03-08T04:27:58.491Z,6.97
2023-03-08T04:33:01.491Z,6.30
2023-03-08T04:38:12.277Z,7.43
2023-03-08T04:43:15.615Z,6.77
2023-03-08T04:48:18.871Z,8.93
2023-03-08T04:53:23.674Z,6.27
2023-03-08T04:58:26.692Z,6.57
2023-03-08T05:03:29.540Z,7.40
2023-03-08T05:08:32.021Z,7.33
2023-03-08T05:13:37.492Z,6.70
2023-03-08T05:18:41.146Z,8.50
2023-03-08T05:23:44.972Z,9.00
2023-03-08T05:28:49.288Z,8.47
2023-03-08T05:33:53.853Z,6.97
2023-03-08T05:39:07.149Z,8.77
2023-03-08T05:44:22.709Z,7.03
2023-03-08T05:49:25.408Z,7.10
2023-03-08T05:54:28.452Z,7.60
2023-03-08T05:59:35.194Z,9.53
2023-03-08T06:04:39.737Z,7.33
2023-03-08T06:09:42.198Z,7.70
2023-03-08T06:14:49.359Z,8.77
2023-03-08T06:19:54.637Z,9.20
2023-03-08T06:24:58.253Z,7.77
2023-03-08T06:30:07.391Z,11.13
2023-03-08T06:35:10.953Z,11.10
2023-03-08T06:40:20.910Z,10.20
2023-03-08T06:45:23.903Z,10.33
2023-03-08T06:50:26.553Z,10.87
2023-03-08T06:55:29.322Z,12.10
2023-03-08T07:00:32.391Z,13.27
2023-03-08T07:05:35.368Z,10.37
2023-03-08T07:10:38.291Z,13.10
2023-03-08T07:15:41.473Z,10.10
2023-03-08T07:20:49.663Z,11.30
2023-03-08T07:25:52.451Z,11.37
2023-03-08T07:30:56.094Z,12.03
2023-03-08T07:36:01.814Z,9.90
2023-03-08T07:41:04.412Z,10.70
2023-03-08T07:46:07.139Z,11.97
2023-03-08T07:51:10.705Z,9.80
2023-03-08T07:56:13.378Z,11.57
2023-03-08T08:01:16.077Z,11.27
2023-03-08T08:06:19.994Z,7.37
2023-03-08T08:11:23.267Z,8.37
2023-03-08T08:16:25.917Z,10.43
2023-03-08T08:21:28.383Z,8.93
2023-03-08T08:26:30.813Z,12.27
2023-03-08T08:31:36.380Z,7.00
2023-03-08T08:36:39.058Z,6.13
2023-03-08T08:41:41.628Z,10.93
2023-03-08T08:46:44.050Z,7.93
2023-03-08T08:51:46.502Z,6.77
2023-03-08T08:56:48.892Z,8.40
2023-03-08T09:01:51.094Z,8.53
2023-03-08T09:06:53.825Z,7.77
2023-03-08T09:11:56.200Z,8.50
2023-03-08T09:16:58.335Z,9.47
2023-03-08T09:22:00.447Z,11.17
2023-03-08T09:27:06.473Z,8.67
2023-03-08T09:32:09.481Z,8.83
2023-03-08T09:37:12.435Z,12.03
2023-03-08T09:42:34.373Z,9.57
2023-03-08T09:48:11.294Z,9.73
2023-03-08T09:53:38.633Z,11.37
2023-03-08T09:58:40.955Z,9.20
2023-03-08T10:04:11.971Z,6.67
2023-03-08T10:09:42.093Z,7.03
2023-03-08T10:14:50.610Z,6.47
2023-03-08T10:20:01.195Z,5.43
2023-03-08T10:25:30.494Z,4.93
2023-03-08T10:30:40.389Z,4.97
2023-03-08T10:36:12.752Z,4.57
2023-03-08T10:41:18.577Z,3.30
2023-03-08T10:46:24.516Z,3.90
2023-03-08T10:51:30.443Z,3.03
2023-03-08T10:56:35.705Z,3.93
2023-03-08T11:01:52.948Z,2.70
2023-03-08T11:06:55.799Z,4.40
2023-03-08T11:12:00.097Z,1.70
2023-03-08T11:17:13.883Z,1.17
2023-03-08T11:22:29.648Z,1.20
2023-03-08T11:27:50.100Z,1.77
2023-03-08T11:33:09.036Z,2.07
2023-03-08T11:38:31.314Z,7.93
2023-03-08T11:43:58.674Z,1.07
2023-03-08T11:49:27.825Z,1.20
2023-03-08T11:55:06.353Z,1.43
2023-03-08T12:00:28.485Z,4.20
2023-03-08T12:05:39.241Z,2.53
2023-03-08T12:11:08.590Z,1.03
2023-03-08T12:16:15.425Z,0.90
2023-03-08T12:21:41.650Z,0.90
2023-03-08T12:26:56.314Z,0.80
2023-03-08T12:32:00.413Z,2.87
2023-03-08T12:37:03.184Z,1.00
2023-03-08T12:42:11.598Z,0.93
2023-03-08T12:47:13.741Z,1.33
2023-03-08T12:52:19.427Z,0.90
2023-03-08T12:57:27.119Z,1.57
2023-03-08T13:02:33.644Z,0.93
2023-03-08T13:08:08.896Z,0.80
2023-03-08T13:13:18.485Z,1.07
2023-03-08T13:18:33.247Z,0.83
2023-03-08T13:23:44.267Z,0.70
2023-03-08T13:28:48.364Z,0.90
2023-03-08T13:33:56.451Z,0.70
2023-03-08T13:39:01.765Z,0.70
2023-03-08T13:44:21.278Z,0.90
2023-03-08T13:49:33.221Z,0.80
2023-03-08T13:54:42.820Z,1.77
2023-03-08T13:59:54.036Z,0.87
2023-03-08T14:04:57.685Z,0.87
2023-03-08T14:09:59.882Z,0.70
2023-03-08T14:15:05.802Z,0.70
2023-03-08T14:20:22.622Z,0.40
2023-03-08T14:25:32.538Z,2.53
2023-03-08T14:30:34.935Z,1.03
2023-03-08T14:35:43.595Z,1.37
2023-03-08T14:40:52.247Z,0.50
2023-03-08T14:46:03.469Z,0.60
2023-03-08T14:51:26.367Z,1.60
2023-03-08T14:56:31.686Z,0.20
2023-03-08T15:01:37.853Z,0.57
2023-03-08T15:06:40.723Z,0.40
2023-03-08T15:11:45.459Z,0.43
2023-03-08T15:16:47.780Z,1.10
2023-03-08T15:21:49.999Z,1.50
2023-03-08T15:26:52.801Z,0.50
2023-03-08T15:31:56.605Z,0.43
2023-03-08T15:36:58.852Z,0.70
2023-03-08T15:42:01.117Z,0.97
2023-03-08T15:47:03.294Z,1.10
2023-03-08T15:52:07.607Z,0.73
2023-03-08T15:57:10.836Z,0.60
2023-03-08T16:02:18.535Z,1.13
2023-03-08T16:07:20.943Z,0.97
2023-03-08T16:12:23.481Z,0.60
2023-03-08T16:17:28.843Z,0.70
2023-03-08T16:22:30.914Z,0.47
2023-03-08T16:27:35.718Z,0.70
2023-03-08T16:32:39.310Z,2.20
2023-03-08T16:37:41.586Z,0.50
2023-03-08T16:42:43.651Z,0.57
2023-03-08T16:47:46.520Z,1.20
2023-03-08T16:52:48.634Z,0.43
2023-03-08T16:57:51.309Z,0.40
2023-03-08T17:02:53.329Z,0.50
2023-03-08T17:07:55.344Z,0.43
2023-03-08T17:12:57.665Z,0.60
2023-03-08T17:17:59.910Z,0.47
2023-03-08T17:23:02.215Z,0.50
2023-03-08T17:28:06.428Z,3.03
2023-03-08T17:33:10.482Z,0.40
2023-03-08T17:38:12.644Z,1.67
2023-03-08T17:43:15.287Z,1.33
2023-03-08T17:48:17.375Z,0.57
2023-03-08T17:53:20.198Z,0.73
2023-03-08T17:58:22.656Z,0.53
2023-03-08T18:03:24.783Z,0.50
2023-03-08T18:08:26.967Z,0.93
2023-03-08T18:13:29.088Z,0.60
2023-03-08T18:18:31.318Z,0.77
2023-03-08T18:23:33.430Z,0.90
2023-03-08T18:28:36.528Z,0.90
2023-03-08T18:33:38.948Z,0.90
2023-03-08T18:38:42.988Z,1.47
2023-03-08T18:43:45.541Z,0.80
2023-03-08T18:48:50.882Z,0.83
2023-03-08T18:53:56.151Z,0.93
2023-03-08T18:59:01.554Z,1.20
2023-03-08T19:04:06.308Z,1.73
2023-03-08T19:09:14.349Z,1.17
2023-03-08T19:14:17.432Z,1.60
2023-03-08T19:19:19.893Z,0.97
2023-03-08T19:24:22.641Z,0.60
2023-03-08T19:29:30.718Z,0.60
2023-03-08T19:34:39.268Z,0.67
2023-03-08T19:39:43.778Z,1.07
2023-03-08T19:44:48.627Z,0.80
2023-03-08T19:49:51.404Z,0.60
2023-03-08T19:54:54.003Z,0.70
2023-03-08T19:59:57.808Z,0.73
2023-03-08T20:05:00.914Z,1.37
2023-03-08T20:10:15.508Z,1.00
2023-03-08T20:15:18.533Z,2.70
2023-03-08T20:20:21.094Z,1.33
2023-03-08T20:25:23.604Z,1.73
2023-03-08T20:30:26.005Z,1.00
2023-03-08T20:35:28.797Z,0.97
2023-03-08T20:40:31.287Z,1.20
2023-03-08T20:45:33.886Z,1.23
2023-03-08T20:50:36.381Z,1.00
2023-03-08T20:55:39.818Z,1.20
2023-03-08T21:00:42.301Z,0.60
2023-03-08T21:05:44.946Z,1.33
2023-03-08T21:10:47.385Z,1.17
2023-03-08T21:15:49.934Z,0.70
2023-03-08T21:20:52.001Z,0.90
2023-03-08T21:25:57.294Z,1.90
2023-03-08T21:30:59.344Z,1.40
2023-03-08T21:36:01.656Z,0.80
2023-03-08T21:41:04.149Z,3.57
2023-03-08T21:46:06.353Z,1.17
2023-03-08T21:51:09.470Z,1.03
2023-03-08T21:56:15.144Z,1.47
2023-03-08T22:01:24.465Z,2.30
2023-03-08T22:06:27.702Z,1.17
2023-03-08T22:11:30.387Z,1.27
2023-03-08T22:16:33.812Z,1.73
2023-03-08T22:21:36.406Z,3.70
2023-03-08T22:26:39.007Z,1.97
2023-03-08T22:31:41.774Z,0.80
2023-03-08T22:36:44.220Z,2.13
2023-03-08T22:41:46.661Z,0.87
2023-03-08T22:46:49.435Z,1.00
2023-03-08T22:51:52.560Z,1.23
2023-03-08T22:56:54.934Z,1.10
2023-03-08T23:01:57.113Z,2.07
2023-03-08T23:06:59.165Z,2.00
2023-03-08T23:12:04.845Z,2.07
2023-03-08T23:17:06.967Z,1.53
2023-03-08T23:22:09.483Z,2.73
2023-03-08T23:27:11.853Z,2.40
2023-03-08T23:32:14.111Z,3.57
2023-03-08T23:37:16.455Z,2.60
2023-03-08T23:42:18.526Z,1.90
2023-03-08T23:47:20.518Z,1.23
2023-03-08T23:52:22.664Z,1.40
2023-03-08T23:57:24.724Z,1.43
